sensor_id;sensor_type;location;lat;lon;timestamp;temperature;humidity
27226;DHT22;14732;51.074;3.788;2023-12-04T00:00:45;3.70;99.90
27226;DHT22;14732;51.074;3.788;2023-12-04T00:03:11;3.70;99.90
27226;DHT22;14732;51.074;3.788;2023-12-04T00:05:37;3.80;99.90
27226;DHT22;14732;51.074;3.788;2023-12-04T00:08:02;3.60;99.90
27226;DHT22;14732;51.074;3.788;2023-12-04T00:10:28;3.70;99.90
27226;DHT22;14732;51.074;3.788;2023-12-04T00:12:54;3.70;99.90
27226;DHT22;14732;51.074;3.788;2023-12-04T00:15:20;3.70;99.90
27226;DHT22;14732;51.074;3.788;2023-12-04T00:17:46;3.90;99.90
27226;DHT22;14732;51.074;3.788;2023-12-04T00:20:12;3.80;99.90
27226;DHT22;14732;51.074;3.788;2023-12-04T00:22:38;3.70;99.90
27226;DHT22;14732;51.074;3.788;2023-12-04T00:25:05;3.80;99.90
27226;DHT22;14732;51.074;3.788;2023-12-04T00:27:32;3.60;99.90
27226;DHT22;14732;51.074;3.788;2023-12-04T00:29:57;3.70;99.90
27226;DHT22;14732;51.074;3.788;2023-12-04T00:32:23;3.80;99.90
27226;DHT22;14732;51.074;3.788;2023-12-04T00:34:49;3.80;99.90
27226;DHT22;14732;51.074;3.788;2023-12-04T00:37:15;3.70;99.90
27226;DHT22;14732;51.074;3.788;2023-12-04T00:39:40;3.70;99.90
27226;DHT22;14732;51.074;3.788;2023-12-04T00:42:06;3.70;99.90
27226;DHT22;14732;51.074;3.788;2023-12-04T00:44:32;3.80;99.90
27226;DHT22;14732;51.074;3.788;2023-12-04T00:46:57;3.70;99.90
27226;DHT22;14732;51.074;3.788;2023-12-04T00:49:23;3.60;99.90
27226;DHT22;14732;51.074;3.788;2023-12-04T00:51:49;3.60;99.90
27226;DHT22;14732;51.074;3.788;2023-12-04T00:54:15;3.70;99.90
27226;DHT22;14732;51.074;3.788;2023-12-04T00:56:41;3.90;99.90
27226;DHT22;14732;51.074;3.788;2023-12-04T00:59:10;3.90;99.90
27226;DHT22;14732;51.074;3.788;2023-12-04T01:01:36;4.00;99.90
27226;DHT22;14732;51.074;3.788;2023-12-04T01:04:02;4.00;99.90
27226;DHT22;14732;51.074;3.788;2023-12-04T01:06:28;3.90;99.90
27226;DHT22;14732;51.074;3.788;2023-12-04T01:08:55;3.80;99.90
27226;DHT22;14732;51.074;3.788;2023-12-04T01:11:21;4.00;99.90
27226;DHT22;14732;51.074;3.788;2023-12-04T01:13:48;3.90;99.90
27226;DHT22;14732;51.074;3.788;2023-12-04T01:16:13;4.20;99.90
27226;DHT22;14732;51.074;3.788;2023-12-04T01:18:40;4.00;99.90
27226;DHT22;14732;51.074;3.788;2023-12-04T01:21:07;4.00;99.90
27226;DHT22;14732;51.074;3.788;2023-12-04T01:23:34;4.10;99.90
27226;DHT22;14732;51.074;3.788;2023-12-04T01:26:00;4.10;99.90
27226;DHT22;14732;51.074;3.788;2023-12-04T01:28:25;4.00;99.90
27226;DHT22;14732;51.074;3.788;2023-12-04T01:30:51;4.00;99.90
27226;DHT22;14732;51.074;3.788;2023-12-04T01:33:17;4.00;99.90
27226;DHT22;14732;51.074;3.788;2023-12-04T01:35:42;4.00;99.90
27226;DHT22;14732;51.074;3.788;2023-12-04T01:38:08;4.10;99.90
27226;DHT22;14732;51.074;3.788;2023-12-04T01:40:34;3.90;99.90
27226;DHT22;14732;51.074;3.788;2023-12-04T01:42:59;3.90;99.90
27226;DHT22;14732;51.074;3.788;2023-12-04T01:45:25;4.10;99.90
27226;DHT22;14732;51.074;3.788;2023-12-04T01:47:51;4.20;99.90
27226;DHT22;14732;51.074;3.788;2023-12-04T01:50:17;4.10;99.90
27226;DHT22;14732;51.074;3.788;2023-12-04T01:52:43;4.10;99.90
27226;DHT22;14732;51.074;3.788;2023-12-04T01:55:09;4.10;99.90
27226;DHT22;14732;51.074;3.788;2023-12-04T01:57:36;4.10;99.90
27226;DHT22;14732;51.074;3.788;2023-12-04T02:00:01;4.20;99.90
27226;DHT22;14732;51.074;3.788;2023-12-04T02:02:28;4.20;99.90
27226;DHT22;14732;51.074;3.788;2023-12-04T02:04:58;4.10;99.90
27226;DHT22;14732;51.074;3.788;2023-12-04T02:07:25;4.10;99.90
27226;DHT22;14732;51.074;3.788;2023-12-04T02:09:50;4.00;99.90
27226;DHT22;14732;51.074;3.788;2023-12-04T02:12:17;4.20;99.90
27226;DHT22;14732;51.074;3.788;2023-12-04T02:14:43;4.10;99.90
27226;DHT22;14732;51.074;3.788;2023-12-04T02:17:09;4.30;99.90
27226;DHT22;14732;51.074;3.788;2023-12-04T02:19:35;4.00;99.90
27226;DHT22;14732;51.074;3.788;2023-12-04T02:22:01;3.80;99.90
27226;DHT22;14732;51.074;3.788;2023-12-04T02:24:27;3.70;99.90
27226;DHT22;14732;51.074;3.788;2023-12-04T02:26:56;3.80;99.90
27226;DHT22;14732;51.074;3.788;2023-12-04T02:29:30;3.90;99.90
27226;DHT22;14732;51.074;3.788;2023-12-04T02:31:57;4.00;99.90
27226;DHT22;14732;51.074;3.788;2023-12-04T02:34:24;4.00;99.90
27226;DHT22;14732;51.074;3.788;2023-12-04T02:36:51;4.00;99.90
27226;DHT22;14732;51.074;3.788;2023-12-04T02:39:18;3.90;99.90
27226;DHT22;14732;51.074;3.788;2023-12-04T02:41:44;3.80;99.90
27226;DHT22;14732;51.074;3.788;2023-12-04T02:44:09;3.90;99.90
27226;DHT22;14732;51.074;3.788;2023-12-04T02:46:35;3.90;99.90
27226;DHT22;14732;51.074;3.788;2023-12-04T02:49:01;4.00;99.90
27226;DHT22;14732;51.074;3.788;2023-12-04T02:51:27;4.10;99.90
27226;DHT22;14732;51.074;3.788;2023-12-04T02:53:52;4.10;99.90
27226;DHT22;14732;51.074;3.788;2023-12-04T02:56:18;4.10;99.90
27226;DHT22;14732;51.074;3.788;2023-12-04T02:58:43;4.10;99.90
27226;DHT22;14732;51.074;3.788;2023-12-04T03:01:09;4.10;99.90
27226;DHT22;14732;51.074;3.788;2023-12-04T03:03:35;4.00;99.90
27226;DHT22;14732;51.074;3.788;2023-12-04T03:06:00;3.90;99.90
27226;DHT22;14732;51.074;3.788;2023-12-04T03:08:26;3.80;99.90
27226;DHT22;14732;51.074;3.788;2023-12-04T03:10:52;3.90;99.90
27226;DHT22;14732;51.074;3.788;2023-12-04T03:13:17;3.80;99.90
27226;DHT22;14732;51.074;3.788;2023-12-04T03:15:43;3.80;99.90
27226;DHT22;14732;51.074;3.788;2023-12-04T03:18:08;3.70;99.90
27226;DHT22;14732;51.074;3.788;2023-12-04T03:20:34;3.70;99.90
27226;DHT22;14732;51.074;3.788;2023-12-04T03:23:00;3.70;99.90
27226;DHT22;14732;51.074;3.788;2023-12-04T03:25:25;3.90;99.90
27226;DHT22;14732;51.074;3.788;2023-12-04T03:27:51;4.10;99.90
27226;DHT22;14732;51.074;3.788;2023-12-04T03:30:16;4.20;99.90
27226;DHT22;14732;51.074;3.788;2023-12-04T03:32:42;3.90;99.90
27226;DHT22;14732;51.074;3.788;2023-12-04T03:35:07;3.80;99.90
27226;DHT22;14732;51.074;3.788;2023-12-04T03:37:33;4.10;99.90
27226;DHT22;14732;51.074;3.788;2023-12-04T03:39:59;4.10;99.90
27226;DHT22;14732;51.074;3.788;2023-12-04T03:42:25;4.10;99.90
27226;DHT22;14732;51.074;3.788;2023-12-04T03:44:50;4.10;99.90
27226;DHT22;14732;51.074;3.788;2023-12-04T03:47:16;4.20;99.90
27226;DHT22;14732;51.074;3.788;2023-12-04T03:49:41;4.10;99.90
27226;DHT22;14732;51.074;3.788;2023-12-04T03:52:07;3.90;99.90
27226;DHT22;14732;51.074;3.788;2023-12-04T03:54:33;3.90;99.90
27226;DHT22;14732;51.074;3.788;2023-12-04T03:56:58;3.80;99.90
27226;DHT22;14732;51.074;3.788;2023-12-04T03:59:24;3.70;99.90
27226;DHT22;14732;51.074;3.788;2023-12-04T04:01:49;4.00;99.90
27226;DHT22;14732;51.074;3.788;2023-12-04T04:04:15;4.10;99.90
27226;DHT22;14732;51.074;3.788;2023-12-04T04:06:41;4.10;99.90
27226;DHT22;14732;51.074;3.788;2023-12-04T04:09:06;4.00;99.90
27226;DHT22;14732;51.074;3.788;2023-12-04T04:11:32;4.20;99.90
27226;DHT22;14732;51.074;3.788;2023-12-04T04:13:58;4.40;99.90
27226;DHT22;14732;51.074;3.788;2023-12-04T04:16:23;4.60;99.90
27226;DHT22;14732;51.074;3.788;2023-12-04T04:18:49;4.30;99.90
27226;DHT22;14732;51.074;3.788;2023-12-04T04:21:15;4.20;99.90
27226;DHT22;14732;51.074;3.788;2023-12-04T04:23:40;4.10;99.90
27226;DHT22;14732;51.074;3.788;2023-12-04T04:26:06;4.10;99.90
27226;DHT22;14732;51.074;3.788;2023-12-04T04:28:32;4.40;99.90
27226;DHT22;14732;51.074;3.788;2023-12-04T04:30:58;4.60;99.90
27226;DHT22;14732;51.074;3.788;2023-12-04T04:33:23;4.70;99.90
27226;DHT22;14732;51.074;3.788;2023-12-04T04:35:49;4.60;99.90
27226;DHT22;14732;51.074;3.788;2023-12-04T04:38:15;4.40;99.90
27226;DHT22;14732;51.074;3.788;2023-12-04T04:40:40;4.40;99.90
27226;DHT22;14732;51.074;3.788;2023-12-04T04:43:10;4.50;99.90
27226;DHT22;14732;51.074;3.788;2023-12-04T04:45:36;4.60;99.90
27226;DHT22;14732;51.074;3.788;2023-12-04T04:48:01;4.50;99.90
27226;DHT22;14732;51.074;3.788;2023-12-04T04:50:27;4.60;99.90
27226;DHT22;14732;51.074;3.788;2023-12-04T04:52:52;4.50;99.90
27226;DHT22;14732;51.074;3.788;2023-12-04T04:55:18;4.40;99.90
27226;DHT22;14732;51.074;3.788;2023-12-04T04:57:44;4.40;99.90
27226;DHT22;14732;51.074;3.788;2023-12-04T05:00:10;4.30;99.90
27226;DHT22;14732;51.074;3.788;2023-12-04T05:02:36;4.50;99.90
27226;DHT22;14732;51.074;3.788;2023-12-04T05:05:03;4.50;99.90
27226;DHT22;14732;51.074;3.788;2023-12-04T05:07:29;4.60;99.90
27226;DHT22;14732;51.074;3.788;2023-12-04T05:09:55;4.60;99.90
27226;DHT22;14732;51.074;3.788;2023-12-04T05:12:21;4.60;99.90
27226;DHT22;14732;51.074;3.788;2023-12-04T05:14:46;4.70;99.90
27226;DHT22;14732;51.074;3.788;2023-12-04T05:17:12;4.60;99.90
27226;DHT22;14732;51.074;3.788;2023-12-04T05:19:37;4.60;99.90
27226;DHT22;14732;51.074;3.788;2023-12-04T05:22:03;4.70;99.90
27226;DHT22;14732;51.074;3.788;2023-12-04T05:24:29;4.60;99.90
27226;DHT22;14732;51.074;3.788;2023-12-04T05:26:54;4.80;99.90
27226;DHT22;14732;51.074;3.788;2023-12-04T05:29:20;4.70;99.90
27226;DHT22;14732;51.074;3.788;2023-12-04T05:31:46;4.60;99.90
27226;DHT22;14732;51.074;3.788;2023-12-04T05:34:12;4.60;99.90
27226;DHT22;14732;51.074;3.788;2023-12-04T05:36:38;4.60;99.90
27226;DHT22;14732;51.074;3.788;2023-12-04T05:39:04;4.70;99.90
27226;DHT22;14732;51.074;3.788;2023-12-04T05:41:30;4.60;99.90
27226;DHT22;14732;51.074;3.788;2023-12-04T05:43:55;4.70;99.90
27226;DHT22;14732;51.074;3.788;2023-12-04T05:46:21;4.70;99.90
27226;DHT22;14732;51.074;3.788;2023-12-04T05:48:47;4.80;99.90
27226;DHT22;14732;51.074;3.788;2023-12-04T05:51:13;4.90;99.90
27226;DHT22;14732;51.074;3.788;2023-12-04T05:53:40;4.70;99.90
27226;DHT22;14732;51.074;3.788;2023-12-04T05:56:06;4.80;99.90
27226;DHT22;14732;51.074;3.788;2023-12-04T05:58:34;4.50;99.90
27226;DHT22;14732;51.074;3.788;2023-12-04T06:01:00;4.40;99.90
27226;DHT22;14732;51.074;3.788;2023-12-04T06:03:25;4.50;99.90
27226;DHT22;14732;51.074;3.788;2023-12-04T06:05:51;4.70;99.90
27226;DHT22;14732;51.074;3.788;2023-12-04T06:08:17;4.60;99.90
27226;DHT22;14732;51.074;3.788;2023-12-04T06:10:42;4.60;99.90
27226;DHT22;14732;51.074;3.788;2023-12-04T06:13:08;4.50;99.90
27226;DHT22;14732;51.074;3.788;2023-12-04T06:15:33;4.60;99.90
27226;DHT22;14732;51.074;3.788;2023-12-04T06:17:59;4.70;99.90
27226;DHT22;14732;51.074;3.788;2023-12-04T06:20:25;4.50;99.90
27226;DHT22;14732;51.074;3.788;2023-12-04T06:22:51;4.60;99.90
27226;DHT22;14732;51.074;3.788;2023-12-04T06:25:17;4.50;99.90
27226;DHT22;14732;51.074;3.788;2023-12-04T06:27:43;4.80;99.90
27226;DHT22;14732;51.074;3.788;2023-12-04T06:30:09;4.90;99.90
27226;DHT22;14732;51.074;3.788;2023-12-04T06:32:35;4.80;99.90
27226;DHT22;14732;51.074;3.788;2023-12-04T06:35:01;4.80;99.90
27226;DHT22;14732;51.074;3.788;2023-12-04T06:37:28;4.90;99.90
27226;DHT22;14732;51.074;3.788;2023-12-04T06:39:58;4.80;99.90
27226;DHT22;14732;51.074;3.788;2023-12-04T06:42:25;4.70;99.90
27226;DHT22;14732;51.074;3.788;2023-12-04T06:44:50;4.60;99.90
27226;DHT22;14732;51.074;3.788;2023-12-04T06:47:19;4.70;99.90
27226;DHT22;14732;51.074;3.788;2023-12-04T06:49:45;4.60;99.90
27226;DHT22;14732;51.074;3.788;2023-12-04T06:52:10;4.70;99.90
27226;DHT22;14732;51.074;3.788;2023-12-04T06:54:36;4.50;99.90
27226;DHT22;14732;51.074;3.788;2023-12-04T06:57:03;4.50;99.90
27226;DHT22;14732;51.074;3.788;2023-12-04T06:59:28;4.50;99.90
27226;DHT22;14732;51.074;3.788;2023-12-04T07:01:54;4.50;99.90
27226;DHT22;14732;51.074;3.788;2023-12-04T07:04:20;4.40;99.90
27226;DHT22;14732;51.074;3.788;2023-12-04T07:06:48;4.40;99.90
27226;DHT22;14732;51.074;3.788;2023-12-04T07:09:14;4.50;99.90
27226;DHT22;14732;51.074;3.788;2023-12-04T07:11:40;4.60;99.90
27226;DHT22;14732;51.074;3.788;2023-12-04T07:14:06;4.60;99.90
27226;DHT22;14732;51.074;3.788;2023-12-04T07:16:42;4.50;99.90
27226;DHT22;14732;51.074;3.788;2023-12-04T07:19:08;4.40;99.90
27226;DHT22;14732;51.074;3.788;2023-12-04T07:21:35;4.50;99.90
27226;DHT22;14732;51.074;3.788;2023-12-04T07:24:01;4.50;99.90
27226;DHT22;14732;51.074;3.788;2023-12-04T07:26:27;4.40;99.90
27226;DHT22;14732;51.074;3.788;2023-12-04T07:28:53;4.30;99.90
27226;DHT22;14732;51.074;3.788;2023-12-04T07:31:19;4.40;99.90
27226;DHT22;14732;51.074;3.788;2023-12-04T07:33:45;4.40;99.90
27226;DHT22;14732;51.074;3.788;2023-12-04T07:36:10;4.40;99.90
27226;DHT22;14732;51.074;3.788;2023-12-04T07:38:36;4.50;99.90
27226;DHT22;14732;51.074;3.788;2023-12-04T07:41:02;4.70;99.90
27226;DHT22;14732;51.074;3.788;2023-12-04T07:43:27;4.60;99.90
27226;DHT22;14732;51.074;3.788;2023-12-04T07:45:55;4.30;99.90
27226;DHT22;14732;51.074;3.788;2023-12-04T07:48:21;4.40;99.90
27226;DHT22;14732;51.074;3.788;2023-12-04T07:50:47;4.50;99.90
27226;DHT22;14732;51.074;3.788;2023-12-04T07:53:13;4.60;99.90
27226;DHT22;14732;51.074;3.788;2023-12-04T07:55:39;4.50;99.90
27226;DHT22;14732;51.074;3.788;2023-12-04T07:58:05;4.40;99.90
27226;DHT22;14732;51.074;3.788;2023-12-04T08:00:30;4.40;99.90
27226;DHT22;14732;51.074;3.788;2023-12-04T08:02:56;4.50;99.90
27226;DHT22;14732;51.074;3.788;2023-12-04T08:05:21;4.60;99.90
27226;DHT22;14732;51.074;3.788;2023-12-04T08:07:47;4.50;99.90
27226;DHT22;14732;51.074;3.788;2023-12-04T08:10:13;4.50;99.90
27226;DHT22;14732;51.074;3.788;2023-12-04T08:12:39;4.40;99.90
27226;DHT22;14732;51.074;3.788;2023-12-04T08:15:05;4.30;99.90
27226;DHT22;14732;51.074;3.788;2023-12-04T08:17:31;4.20;99.90
27226;DHT22;14732;51.074;3.788;2023-12-04T08:19:57;4.50;99.90
27226;DHT22;14732;51.074;3.788;2023-12-04T08:22:22;4.50;99.90
27226;DHT22;14732;51.074;3.788;2023-12-04T08:24:48;4.50;99.90
27226;DHT22;14732;51.074;3.788;2023-12-04T08:27:14;4.30;99.90
27226;DHT22;14732;51.074;3.788;2023-12-04T08:29:40;4.50;99.90
27226;DHT22;14732;51.074;3.788;2023-12-04T08:32:06;4.60;99.90
27226;DHT22;14732;51.074;3.788;2023-12-04T08:34:32;4.60;99.90
27226;DHT22;14732;51.074;3.788;2023-12-04T08:36:57;4.60;99.90
27226;DHT22;14732;51.074;3.788;2023-12-04T08:39:23;4.70;99.90
27226;DHT22;14732;51.074;3.788;2023-12-04T08:41:49;4.60;99.90
27226;DHT22;14732;51.074;3.788;2023-12-04T08:44:14;4.50;99.90
27226;DHT22;14732;51.074;3.788;2023-12-04T08:46:41;4.40;99.90
27226;DHT22;14732;51.074;3.788;2023-12-04T08:49:07;4.70;99.90
27226;DHT22;14732;51.074;3.788;2023-12-04T08:51:32;4.70;99.90
27226;DHT22;14732;51.074;3.788;2023-12-04T08:53:58;4.70;99.90
27226;DHT22;14732;51.074;3.788;2023-12-04T08:56:24;4.70;99.90
27226;DHT22;14732;51.074;3.788;2023-12-04T08:58:49;4.60;99.90
27226;DHT22;14732;51.074;3.788;2023-12-04T09:01:16;4.60;99.90
27226;DHT22;14732;51.074;3.788;2023-12-04T09:03:42;4.70;99.90
27226;DHT22;14732;51.074;3.788;2023-12-04T09:06:07;4.90;99.90
27226;DHT22;14732;51.074;3.788;2023-12-04T09:08:34;5.00;99.90
27226;DHT22;14732;51.074;3.788;2023-12-04T09:11:00;5.20;99.90
27226;DHT22;14732;51.074;3.788;2023-12-04T09:13:26;5.10;99.90
27226;DHT22;14732;51.074;3.788;2023-12-04T09:15:51;5.10;99.90
27226;DHT22;14732;51.074;3.788;2023-12-04T09:18:17;5.20;99.90
27226;DHT22;14732;51.074;3.788;2023-12-04T09:20:44;5.20;99.90
27226;DHT22;14732;51.074;3.788;2023-12-04T09:23:09;5.00;99.90
27226;DHT22;14732;51.074;3.788;2023-12-04T09:25:35;4.90;99.90
27226;DHT22;14732;51.074;3.788;2023-12-04T09:28:01;4.80;99.90
27226;DHT22;14732;51.074;3.788;2023-12-04T09:30:27;4.80;99.90
27226;DHT22;14732;51.074;3.788;2023-12-04T09:32:54;4.70;99.90
27226;DHT22;14732;51.074;3.788;2023-12-04T09:35:19;4.70;99.90
27226;DHT22;14732;51.074;3.788;2023-12-04T09:37:45;4.60;99.90
27226;DHT22;14732;51.074;3.788;2023-12-04T09:40:11;4.50;99.90
27226;DHT22;14732;51.074;3.788;2023-12-04T09:42:39;4.50;99.90
27226;DHT22;14732;51.074;3.788;2023-12-04T09:45:05;4.60;99.90
27226;DHT22;14732;51.074;3.788;2023-12-04T09:47:34;4.60;99.90
27226;DHT22;14732;51.074;3.788;2023-12-04T09:50:00;4.70;99.90
27226;DHT22;14732;51.074;3.788;2023-12-04T09:52:27;4.70;99.90
27226;DHT22;14732;51.074;3.788;2023-12-04T09:54:53;4.60;99.90
27226;DHT22;14732;51.074;3.788;2023-12-04T09:57:19;4.40;99.90
27226;DHT22;14732;51.074;3.788;2023-12-04T09:59:47;4.40;99.90
27226;DHT22;14732;51.074;3.788;2023-12-04T10:02:14;4.40;99.90
27226;DHT22;14732;51.074;3.788;2023-12-04T10:04:40;4.40;99.90
27226;DHT22;14732;51.074;3.788;2023-12-04T10:07:06;4.30;99.90
27226;DHT22;14732;51.074;3.788;2023-12-04T10:09:32;4.30;99.90
27226;DHT22;14732;51.074;3.788;2023-12-04T10:11:58;4.30;99.90
27226;DHT22;14732;51.074;3.788;2023-12-04T10:14:23;4.20;99.90
27226;DHT22;14732;51.074;3.788;2023-12-04T10:16:51;4.20;99.90
27226;DHT22;14732;51.074;3.788;2023-12-04T10:19:26;4.00;99.90
27226;DHT22;14732;51.074;3.788;2023-12-04T10:21:55;4.00;99.90
27226;DHT22;14732;51.074;3.788;2023-12-04T10:24:32;4.10;99.90
27226;DHT22;14732;51.074;3.788;2023-12-04T10:26:59;4.10;99.90
27226;DHT22;14732;51.074;3.788;2023-12-04T10:29:28;4.20;99.90
27226;DHT22;14732;51.074;3.788;2023-12-04T10:31:57;4.20;99.90
27226;DHT22;14732;51.074;3.788;2023-12-04T10:34:25;4.10;99.90
27226;DHT22;14732;51.074;3.788;2023-12-04T10:36:52;4.20;99.90
27226;DHT22;14732;51.074;3.788;2023-12-04T10:39:17;4.20;99.90
27226;DHT22;14732;51.074;3.788;2023-12-04T10:41:44;4.30;99.90
27226;DHT22;14732;51.074;3.788;2023-12-04T10:44:16;4.10;99.90
27226;DHT22;14732;51.074;3.788;2023-12-04T10:46:43;4.10;99.90
27226;DHT22;14732;51.074;3.788;2023-12-04T10:49:10;4.00;99.90
27226;DHT22;14732;51.074;3.788;2023-12-04T10:51:36;3.80;99.90
27226;DHT22;14732;51.074;3.788;2023-12-04T10:54:02;3.80;99.90
27226;DHT22;14732;51.074;3.788;2023-12-04T10:56:36;3.90;99.90
27226;DHT22;14732;51.074;3.788;2023-12-04T10:59:08;3.80;99.90
27226;DHT22;14732;51.074;3.788;2023-12-04T11:01:36;3.90;99.90
27226;DHT22;14732;51.074;3.788;2023-12-04T11:04:03;3.80;99.90
27226;DHT22;14732;51.074;3.788;2023-12-04T11:06:32;3.90;99.90
27226;DHT22;14732;51.074;3.788;2023-12-04T11:08:59;4.00;99.90
27226;DHT22;14732;51.074;3.788;2023-12-04T11:11:30;4.10;99.90
27226;DHT22;14732;51.074;3.788;2023-12-04T11:14:01;4.10;99.90
27226;DHT22;14732;51.074;3.788;2023-12-04T11:16:51;4.00;99.90
27226;DHT22;14732;51.074;3.788;2023-12-04T11:19:50;4.00;99.90
27226;DHT22;14732;51.074;3.788;2023-12-04T11:22:17;3.90;99.90
27226;DHT22;14732;51.074;3.788;2023-12-04T11:24:47;4.00;99.90
27226;DHT22;14732;51.074;3.788;2023-12-04T11:27:15;3.90;99.90
27226;DHT22;14732;51.074;3.788;2023-12-04T11:29:42;3.80;99.90
27226;DHT22;14732;51.074;3.788;2023-12-04T11:32:16;3.80;99.90
27226;DHT22;14732;51.074;3.788;2023-12-04T11:35:11;3.80;99.90
27226;DHT22;14732;51.074;3.788;2023-12-04T11:37:37;4.00;99.90
27226;DHT22;14732;51.074;3.788;2023-12-04T11:40:03;3.90;99.90
27226;DHT22;14732;51.074;3.788;2023-12-04T11:42:30;3.90;99.90
27226;DHT22;14732;51.074;3.788;2023-12-04T11:44:57;3.80;99.90
27226;DHT22;14732;51.074;3.788;2023-12-04T11:47:23;3.80;99.90
27226;DHT22;14732;51.074;3.788;2023-12-04T11:49:49;3.90;99.90
27226;DHT22;14732;51.074;3.788;2023-12-04T11:52:15;3.90;99.90
27226;DHT22;14732;51.074;3.788;2023-12-04T11:54:59;4.00;99.90
27226;DHT22;14732;51.074;3.788;2023-12-04T11:57:26;4.00;99.90
27226;DHT22;14732;51.074;3.788;2023-12-04T12:02:50;4.40;99.90
27226;DHT22;14732;51.074;3.788;2023-12-04T12:05:26;4.50;99.90
27226;DHT22;14732;51.074;3.788;2023-12-04T12:07:52;4.30;99.90
27226;DHT22;14732;51.074;3.788;2023-12-04T12:10:18;4.60;99.90
27226;DHT22;14732;51.074;3.788;2023-12-04T12:12:44;4.80;99.90
27226;DHT22;14732;51.074;3.788;2023-12-04T12:15:10;4.70;99.90
27226;DHT22;14732;51.074;3.788;2023-12-04T12:17:40;4.40;99.90
27226;DHT22;14732;51.074;3.788;2023-12-04T12:20:07;4.60;99.90
27226;DHT22;14732;51.074;3.788;2023-12-04T12:22:34;4.60;99.90
27226;DHT22;14732;51.074;3.788;2023-12-04T12:25:00;4.50;99.90
27226;DHT22;14732;51.074;3.788;2023-12-04T12:27:27;4.70;99.90
27226;DHT22;14732;51.074;3.788;2023-12-04T12:29:53;4.90;99.90
27226;DHT22;14732;51.074;3.788;2023-12-04T12:32:18;4.90;99.90
27226;DHT22;14732;51.074;3.788;2023-12-04T12:34:44;4.90;99.90
27226;DHT22;14732;51.074;3.788;2023-12-04T12:37:10;4.90;99.90
27226;DHT22;14732;51.074;3.788;2023-12-04T12:39:35;4.70;99.90
27226;DHT22;14732;51.074;3.788;2023-12-04T12:42:01;4.60;99.90
27226;DHT22;14732;51.074;3.788;2023-12-04T12:44:39;4.60;99.90
27226;DHT22;14732;51.074;3.788;2023-12-04T12:47:08;4.70;99.90
27226;DHT22;14732;51.074;3.788;2023-12-04T12:49:34;4.80;99.90
27226;DHT22;14732;51.074;3.788;2023-12-04T12:52:05;4.80;99.90
27226;DHT22;14732;51.074;3.788;2023-12-04T12:54:30;4.70;99.90
27226;DHT22;14732;51.074;3.788;2023-12-04T12:56:59;4.60;99.90
27226;DHT22;14732;51.074;3.788;2023-12-04T12:59:26;4.60;99.90
27226;DHT22;14732;51.074;3.788;2023-12-04T13:01:52;4.70;99.90
27226;DHT22;14732;51.074;3.788;2023-12-04T13:04:18;4.80;99.90
27226;DHT22;14732;51.074;3.788;2023-12-04T13:06:44;4.70;99.90
27226;DHT22;14732;51.074;3.788;2023-12-04T13:09:11;4.60;99.90
27226;DHT22;14732;51.074;3.788;2023-12-04T13:11:44;4.70;99.90
27226;DHT22;14732;51.074;3.788;2023-12-04T13:14:10;4.70;99.90
27226;DHT22;14732;51.074;3.788;2023-12-04T13:16:35;4.70;99.90
27226;DHT22;14732;51.074;3.788;2023-12-04T13:19:01;4.60;99.90
27226;DHT22;14732;51.074;3.788;2023-12-04T13:21:27;4.80;99.90
27226;DHT22;14732;51.074;3.788;2023-12-04T13:23:53;5.00;99.90
27226;DHT22;14732;51.074;3.788;2023-12-04T13:26:19;5.00;99.90
27226;DHT22;14732;51.074;3.788;2023-12-04T13:28:45;4.80;99.90
27226;DHT22;14732;51.074;3.788;2023-12-04T13:31:12;4.80;99.90
27226;DHT22;14732;51.074;3.788;2023-12-04T13:33:37;4.90;99.90
27226;DHT22;14732;51.074;3.788;2023-12-04T13:36:03;4.80;99.90
27226;DHT22;14732;51.074;3.788;2023-12-04T13:38:29;4.80;99.90
27226;DHT22;14732;51.074;3.788;2023-12-04T13:40:56;4.80;99.90
27226;DHT22;14732;51.074;3.788;2023-12-04T13:43:40;4.70;99.90
27226;DHT22;14732;51.074;3.788;2023-12-04T13:46:17;4.70;99.90
27226;DHT22;14732;51.074;3.788;2023-12-04T13:48:43;4.80;99.90
27226;DHT22;14732;51.074;3.788;2023-12-04T13:51:10;4.70;99.90
27226;DHT22;14732;51.074;3.788;2023-12-04T13:53:37;4.70;99.90
27226;DHT22;14732;51.074;3.788;2023-12-04T13:56:11;4.80;99.90
27226;DHT22;14732;51.074;3.788;2023-12-04T13:58:46;4.60;99.90
27226;DHT22;14732;51.074;3.788;2023-12-04T14:01:12;4.60;99.90
27226;DHT22;14732;51.074;3.788;2023-12-04T14:03:44;4.60;99.90
27226;DHT22;14732;51.074;3.788;2023-12-04T14:06:10;4.70;99.90
27226;DHT22;14732;51.074;3.788;2023-12-04T14:08:36;4.60;99.90
27226;DHT22;14732;51.074;3.788;2023-12-04T14:11:05;4.60;99.90
27226;DHT22;14732;51.074;3.788;2023-12-04T14:13:32;4.70;99.90
27226;DHT22;14732;51.074;3.788;2023-12-04T14:15:58;4.70;99.90
27226;DHT22;14732;51.074;3.788;2023-12-04T14:18:24;4.80;99.90
27226;DHT22;14732;51.074;3.788;2023-12-04T14:20:49;4.70;99.90
27226;DHT22;14732;51.074;3.788;2023-12-04T14:23:16;4.60;99.90
27226;DHT22;14732;51.074;3.788;2023-12-04T14:25:44;4.60;99.90
27226;DHT22;14732;51.074;3.788;2023-12-04T14:28:10;4.50;99.90
27226;DHT22;14732;51.074;3.788;2023-12-04T14:30:35;4.60;99.90
27226;DHT22;14732;51.074;3.788;2023-12-04T14:33:01;4.50;99.90
27226;DHT22;14732;51.074;3.788;2023-12-04T14:35:27;4.60;99.90
27226;DHT22;14732;51.074;3.788;2023-12-04T14:37:52;4.50;99.90
27226;DHT22;14732;51.074;3.788;2023-12-04T14:40:18;4.40;99.90
27226;DHT22;14732;51.074;3.788;2023-12-04T14:42:45;4.60;99.90
27226;DHT22;14732;51.074;3.788;2023-12-04T14:45:12;4.60;99.90
27226;DHT22;14732;51.074;3.788;2023-12-04T14:47:39;4.60;99.90
27226;DHT22;14732;51.074;3.788;2023-12-04T14:50:06;4.60;99.90
27226;DHT22;14732;51.074;3.788;2023-12-04T14:52:32;4.70;99.90
27226;DHT22;14732;51.074;3.788;2023-12-04T14:54:59;4.60;99.90
27226;DHT22;14732;51.074;3.788;2023-12-04T14:57:34;4.60;99.90
27226;DHT22;14732;51.074;3.788;2023-12-04T15:00:08;4.60;99.90
27226;DHT22;14732;51.074;3.788;2023-12-04T15:02:53;4.70;99.90
27226;DHT22;14732;51.074;3.788;2023-12-04T15:05:21;4.80;99.90
27226;DHT22;14732;51.074;3.788;2023-12-04T15:08:05;4.60;99.90
27226;DHT22;14732;51.074;3.788;2023-12-04T15:10:34;4.50;99.90
27226;DHT22;14732;51.074;3.788;2023-12-04T15:13:18;4.50;99.90
27226;DHT22;14732;51.074;3.788;2023-12-04T15:16:02;4.60;99.90
27226;DHT22;14732;51.074;3.788;2023-12-04T15:18:46;4.60;99.90
27226;DHT22;14732;51.074;3.788;2023-12-04T15:21:17;4.70;99.90
27226;DHT22;14732;51.074;3.788;2023-12-04T15:23:43;4.50;99.90
27226;DHT22;14732;51.074;3.788;2023-12-04T15:26:09;4.50;99.90
27226;DHT22;14732;51.074;3.788;2023-12-04T15:28:34;4.50;99.90
27226;DHT22;14732;51.074;3.788;2023-12-04T15:31:00;4.60;99.90
27226;DHT22;14732;51.074;3.788;2023-12-04T15:33:26;4.60;99.90
27226;DHT22;14732;51.074;3.788;2023-12-04T15:35:53;4.60;99.90
27226;DHT22;14732;51.074;3.788;2023-12-04T15:38:20;4.50;99.90
27226;DHT22;14732;51.074;3.788;2023-12-04T15:40:46;4.40;99.90
27226;DHT22;14732;51.074;3.788;2023-12-04T15:43:12;4.40;99.90
27226;DHT22;14732;51.074;3.788;2023-12-04T15:45:38;4.40;99.90